AAL152 KSMF-PHNL
Flight info
| Callsign | AAL152 |
|---|---|
| Flight time | 4h 30m |
| Altitude | 32000 |
| Route | PYE BEBOP R464 BILLO/N0455F340 R464 BITTA MAGGI3 |
| Aircraft | A321/M-SDE3FGHIRWY/LB1 |
Departure
| Time | 2026-05-05 00:26 |
|---|---|
| Airport | Sacramento International Airport (KSMF) |
Arrival
| Time | 2026-05-05 04:56 |
|---|---|
| Airport | Daniel K. Inouye International Airport (PHNL) |
| Time | Latitude | Longitude | Altitude | Speed | Heading |
|---|---|---|---|---|---|
| 2026-05-04 23:46 | 38.69355 | -121.58655 | 28 ft | 0 kts | 221° |
| 2026-05-05 00:12 | 38.69364 | -121.58645 | 29 ft | 4 kts | 223° |
| 2026-05-05 00:12 | 38.69383 | -121.58621 | 29 ft | 4 kts | 224° |
| 2026-05-05 00:12 | 38.69400 | -121.58597 | 29 ft | 4 kts | 250° |
| 2026-05-05 00:12 | 38.69403 | -121.58564 | 29 ft | 4 kts | 276° |
| 2026-05-05 00:13 | 38.69401 | -121.58540 | 29 ft | 0 kts | 271° |
| 2026-05-05 00:17 | 38.69401 | -121.58542 | 29 ft | 1 kts | 271° |
| 2026-05-05 00:18 | 38.69397 | -121.58557 | 29 ft | 1 kts | 227° |
| 2026-05-05 00:18 | 38.69392 | -121.58554 | 29 ft | 1 kts | 173° |
| 2026-05-05 00:18 | 38.69382 | -121.58547 | 29 ft | 1 kts | 126° |
| 2026-05-05 00:18 | 38.69374 | -121.58525 | 29 ft | 4 kts | 111° |
| 2026-05-05 00:19 | 38.69384 | -121.58500 | 29 ft | 4 kts | 64° |
| 2026-05-05 00:19 | 38.69397 | -121.58453 | 29 ft | 7 kts | 86° |
| 2026-05-05 00:19 | 38.69399 | -121.58381 | 28 ft | 9 kts | 91° |
| 2026-05-05 00:19 | 38.69402 | -121.58311 | 28 ft | 6 kts | 65° |
| 2026-05-05 00:20 | 38.69440 | -121.58293 | 28 ft | 7 kts | 5° |
| 2026-05-05 00:20 | 38.69489 | -121.58290 | 28 ft | 7 kts | 1° |
| 2026-05-05 00:20 | 38.69542 | -121.58290 | 28 ft | 8 kts | 0° |
| 2026-05-05 00:20 | 38.69598 | -121.58289 | 28 ft | 8 kts | 0° |
| 2026-05-05 00:21 | 38.69659 | -121.58288 | 28 ft | 9 kts | 0° |
| 2026-05-05 00:21 | 38.69722 | -121.58287 | 28 ft | 10 kts | 1° |
| 2026-05-05 00:21 | 38.69791 | -121.58285 | 29 ft | 10 kts | 1° |
| 2026-05-05 00:21 | 38.69865 | -121.58283 | 29 ft | 11 kts | 360° |
| 2026-05-05 00:22 | 38.69945 | -121.58284 | 29 ft | 12 kts | 359° |
| 2026-05-05 00:22 | 38.70032 | -121.58283 | 29 ft | 13 kts | 0° |
| 2026-05-05 00:22 | 38.70124 | -121.58280 | 29 ft | 14 kts | 2° |
| 2026-05-05 00:22 | 38.70223 | -121.58278 | 29 ft | 15 kts | 0° |
| 2026-05-05 00:23 | 38.70328 | -121.58277 | 29 ft | 15 kts | 0° |
| 2026-05-05 00:23 | 38.70434 | -121.58275 | 29 ft | 14 kts | 1° |
| 2026-05-05 00:23 | 38.70524 | -121.58273 | 29 ft | 11 kts | 1° |
| 2026-05-05 00:23 | 38.70598 | -121.58270 | 29 ft | 10 kts | 1° |
| 2026-05-05 00:24 | 38.70670 | -121.58265 | 28 ft | 9 kts | 17° |
| 2026-05-05 00:24 | 38.70700 | -121.58211 | 28 ft | 7 kts | 80° |
| 2026-05-05 00:24 | 38.70701 | -121.58143 | 28 ft | 8 kts | 90° |
| 2026-05-05 00:24 | 38.70700 | -121.58063 | 29 ft | 9 kts | 90° |
| 2026-05-05 00:25 | 38.70678 | -121.58008 | 29 ft | 6 kts | 167° |
| 2026-05-05 00:25 | 38.70644 | -121.58009 | 28 ft | 4 kts | 182° |
| 2026-05-05 00:25 | 38.70628 | -121.58010 | 28 ft | 1 kts | 182° |
| 2026-05-05 00:25 | 38.70616 | -121.58010 | 28 ft | 9 kts | 182° |
| 2026-05-05 00:26 | 38.70301 | -121.58013 | 29 ft | 80 kts | 179° |
| 2026-05-05 00:26 | 38.69535 | -121.58028 | 29 ft | 138 kts | 180° |
| 2026-05-05 00:26 | 38.68416 | -121.58031 | 203 ft | 172 kts | 177° |
| 2026-05-05 00:26 | 38.67263 | -121.58040 | 1149 ft | 164 kts | 182° |
| 2026-05-05 00:27 | 38.66108 | -121.58045 | 1875 ft | 170 kts | 181° |
| 2026-05-05 00:27 | 38.64849 | -121.58047 | 2257 ft | 192 kts | 181° |
| 2026-05-05 00:27 | 38.63459 | -121.58048 | 2465 ft | 211 kts | 181° |
| 2026-05-05 00:27 | 38.61922 | -121.58047 | 2586 ft | 232 kts | 181° |
| 2026-05-05 00:28 | 38.60229 | -121.58047 | 2842 ft | 251 kts | 181° |
| 2026-05-05 00:28 | 38.58460 | -121.58045 | 3426 ft | 256 kts | 181° |
| 2026-05-05 00:28 | 38.56662 | -121.58041 | 4039 ft | 259 kts | 181° |
| 2026-05-05 00:28 | 38.54870 | -121.58037 | 4664 ft | 262 kts | 181° |
| 2026-05-05 00:29 | 38.53032 | -121.58033 | 5287 ft | 265 kts | 181° |
| 2026-05-05 00:29 | 38.51172 | -121.58028 | 5873 ft | 269 kts | 180° |
| 2026-05-05 00:29 | 38.49331 | -121.58023 | 6634 ft | 264 kts | 180° |
| 2026-05-05 00:29 | 38.47478 | -121.58017 | 7162 ft | 268 kts | 180° |
| 2026-05-05 00:30 | 38.45616 | -121.58012 | 7695 ft | 272 kts | 180° |
| 2026-05-05 00:30 | 38.43709 | -121.58006 | 8242 ft | 276 kts | 179° |
| 2026-05-05 00:30 | 38.41777 | -121.58001 | 8793 ft | 279 kts | 179° |
| 2026-05-05 00:30 | 38.39822 | -121.57995 | 9327 ft | 283 kts | 179° |
| 2026-05-05 00:31 | 38.37836 | -121.57990 | 9866 ft | 287 kts | 179° |
| 2026-05-05 00:31 | 38.35807 | -121.57984 | 10154 ft | 300 kts | 179° |
| 2026-05-05 00:31 | 38.33653 | -121.57977 | 10289 ft | 318 kts | 179° |
| 2026-05-05 00:31 | 38.31391 | -121.57970 | 10556 ft | 328 kts | 179° |
| 2026-05-05 00:32 | 38.29125 | -121.57963 | 11111 ft | 329 kts | 179° |
| 2026-05-05 00:32 | 38.26816 | -121.57955 | 11663 ft | 331 kts | 178° |
| 2026-05-05 00:32 | 38.24507 | -121.58104 | 12198 ft | 335 kts | 191° |
| 2026-05-05 00:32 | 38.23029 | -121.58684 | 12531 ft | 337 kts | 205° |
| 2026-05-05 00:33 | 38.21091 | -121.60375 | 13067 ft | 341 kts | 226° |
| 2026-05-05 00:33 | 38.19759 | -121.62884 | 13654 ft | 343 kts | 249° |
| 2026-05-05 00:33 | 38.19214 | -121.65834 | 14193 ft | 345 kts | 265° |
| 2026-05-05 00:33 | 38.18955 | -121.68887 | 14695 ft | 349 kts | 265° |
| 2026-05-05 00:34 | 38.18693 | -121.71939 | 15111 ft | 353 kts | 264° |
| 2026-05-05 00:34 | 38.18424 | -121.75063 | 15533 ft | 357 kts | 264° |
| 2026-05-05 00:34 | 38.18149 | -121.78223 | 15940 ft | 361 kts | 264° |
| 2026-05-05 00:34 | 38.17867 | -121.81420 | 16341 ft | 365 kts | 264° |
| 2026-05-05 00:35 | 38.17583 | -121.84617 | 16725 ft | 370 kts | 264° |
| 2026-05-05 00:35 | 38.17288 | -121.87882 | 17149 ft | 374 kts | 265° |
| 2026-05-05 00:35 | 38.16988 | -121.91202 | 17567 ft | 379 kts | 265° |
| 2026-05-05 00:35 | 38.16684 | -121.94556 | 17987 ft | 383 kts | 265° |
| 2026-05-05 00:36 | 38.16375 | -121.97938 | 18372 ft | 387 kts | 265° |
| 2026-05-05 00:36 | 38.16061 | -122.01360 | 18713 ft | 391 kts | 265° |
| 2026-05-05 00:36 | 38.15753 | -122.04767 | 19031 ft | 396 kts | 265° |
| 2026-05-05 00:36 | 38.15435 | -122.08298 | 19141 ft | 407 kts | 265° |
| 2026-05-05 00:37 | 38.15107 | -122.11927 | 19295 ft | 418 kts | 265° |
| 2026-05-05 00:37 | 38.14769 | -122.15656 | 19419 ft | 429 kts | 265° |
| 2026-05-05 00:37 | 38.14423 | -122.19405 | 19652 ft | 435 kts | 265° |
| 2026-05-05 00:37 | 38.14063 | -122.23247 | 19990 ft | 439 kts | 265° |
| 2026-05-05 00:38 | 38.13696 | -122.27125 | 20359 ft | 442 kts | 265° |
| 2026-05-05 00:38 | 38.13330 | -122.31003 | 20732 ft | 445 kts | 265° |
| 2026-05-05 00:38 | 38.12962 | -122.34922 | 21088 ft | 447 kts | 266° |
| 2026-05-05 00:38 | 38.12591 | -122.38864 | 21442 ft | 450 kts | 266° |
| 2026-05-05 00:39 | 38.12215 | -122.42829 | 21789 ft | 452 kts | 266° |
| 2026-05-05 00:39 | 38.11837 | -122.46816 | 22135 ft | 455 kts | 266° |
| 2026-05-05 00:39 | 38.11459 | -122.50811 | 22476 ft | 457 kts | 266° |
| 2026-05-05 00:39 | 38.11082 | -122.54800 | 22806 ft | 460 kts | 266° |
| 2026-05-05 00:40 | 38.10698 | -122.58850 | 23125 ft | 462 kts | 266° |
| 2026-05-05 00:40 | 38.10308 | -122.62921 | 23453 ft | 465 kts | 266° |
| 2026-05-05 00:40 | 38.09919 | -122.66955 | 23759 ft | 467 kts | 265° |
| 2026-05-05 00:40 | 38.09521 | -122.71065 | 24028 ft | 470 kts | 265° |
| 2026-05-05 00:41 | 38.09118 | -122.75193 | 24288 ft | 472 kts | 265° |
| 2026-05-05 00:41 | 38.08707 | -122.79352 | 24550 ft | 474 kts | 265° |
| 2026-05-05 00:41 | 38.08179 | -122.83507 | 24799 ft | 478 kts | 258° |
| 2026-05-05 00:41 | 38.07179 | -122.87568 | 25054 ft | 482 kts | 249° |
| 2026-05-05 00:42 | 38.05723 | -122.91358 | 25299 ft | 485 kts | 239° |
| 2026-05-05 00:42 | 38.03926 | -122.94997 | 25545 ft | 487 kts | 237° |
| 2026-05-05 00:42 | 38.02119 | -122.98639 | 25804 ft | 489 kts | 238° |
| 2026-05-05 00:42 | 38.00312 | -123.02308 | 26065 ft | 491 kts | 238° |
| 2026-05-05 00:43 | 37.98508 | -123.05992 | 26316 ft | 493 kts | 238° |
| 2026-05-05 00:43 | 37.96693 | -123.09698 | 26569 ft | 495 kts | 238° |
| 2026-05-05 00:43 | 37.94871 | -123.13407 | 26819 ft | 497 kts | 238° |
| 2026-05-05 00:43 | 37.93059 | -123.17084 | 27052 ft | 498 kts | 238° |
| 2026-05-05 00:44 | 37.91212 | -123.20821 | 27286 ft | 500 kts | 238° |
| 2026-05-05 00:44 | 37.89354 | -123.24567 | 27521 ft | 502 kts | 238° |
| 2026-05-05 00:44 | 37.87494 | -123.28317 | 27750 ft | 504 kts | 238° |
| 2026-05-05 00:44 | 37.85627 | -123.32079 | 27970 ft | 506 kts | 238° |
| 2026-05-05 00:45 | 37.83764 | -123.35827 | 28214 ft | 507 kts | 238° |
| 2026-05-05 00:45 | 37.81876 | -123.39620 | 28439 ft | 509 kts | 238° |
| 2026-05-05 00:45 | 37.79983 | -123.43416 | 28682 ft | 511 kts | 238° |
| 2026-05-05 00:45 | 37.78074 | -123.47238 | 28917 ft | 513 kts | 237° |
| 2026-05-05 00:46 | 37.76194 | -123.50996 | 29228 ft | 512 kts | 238° |
| 2026-05-05 00:46 | 37.74287 | -123.54807 | 29575 ft | 511 kts | 238° |
| 2026-05-05 00:46 | 37.72386 | -123.58608 | 29913 ft | 511 kts | 238° |
| 2026-05-05 00:46 | 37.70493 | -123.62395 | 30237 ft | 510 kts | 238° |
| 2026-05-05 00:47 | 37.68602 | -123.66174 | 30522 ft | 509 kts | 237° |
| 2026-05-05 00:47 | 37.66707 | -123.69953 | 30835 ft | 508 kts | 238° |
| 2026-05-05 00:47 | 37.64821 | -123.73709 | 31139 ft | 506 kts | 237° |
| 2026-05-05 00:47 | 37.62963 | -123.77403 | 31443 ft | 504 kts | 237° |
| 2026-05-05 00:48 | 37.61081 | -123.81136 | 31736 ft | 502 kts | 237° |
| 2026-05-05 00:48 | 37.59206 | -123.84845 | 32008 ft | 501 kts | 237° |
| 2026-05-05 00:48 | 37.57332 | -123.88554 | 32076 ft | 499 kts | 237° |
| 2026-05-05 00:49 | 37.53611 | -123.95910 | 32083 ft | 496 kts | 237° |
| 2026-05-05 00:49 | 37.49908 | -124.03208 | 32083 ft | 496 kts | 237° |
| 2026-05-05 00:50 | 37.46188 | -124.10525 | 32084 ft | 495 kts | 237° |
| 2026-05-05 00:50 | 37.42466 | -124.17840 | 32084 ft | 495 kts | 237° |
| 2026-05-05 00:51 | 37.38744 | -124.25136 | 32086 ft | 495 kts | 237° |
| 2026-05-05 00:51 | 37.35035 | -124.32370 | 32091 ft | 495 kts | 237° |
| 2026-05-05 00:52 | 37.31309 | -124.39650 | 32091 ft | 495 kts | 238° |
| 2026-05-05 00:52 | 37.27570 | -124.46932 | 32098 ft | 494 kts | 237° |
| 2026-05-05 00:53 | 37.23840 | -124.54175 | 32099 ft | 494 kts | 237° |
| 2026-05-05 00:53 | 37.20131 | -124.61366 | 32104 ft | 493 kts | 238° |
| 2026-05-05 00:54 | 37.16394 | -124.68598 | 32103 ft | 493 kts | 237° |
| 2026-05-05 00:54 | 37.12672 | -124.75768 | 32101 ft | 492 kts | 237° |
| 2026-05-05 00:55 | 37.08923 | -124.82983 | 32101 ft | 492 kts | 237° |
| 2026-05-05 00:55 | 37.05187 | -124.90168 | 32099 ft | 491 kts | 237° |
| 2026-05-05 00:56 | 37.01457 | -124.97339 | 32101 ft | 491 kts | 239° |
| 2026-05-05 00:56 | 36.98675 | -125.05021 | 32097 ft | 487 kts | 253° |
| 2026-05-05 00:57 | 36.96528 | -125.13076 | 32098 ft | 487 kts | 253° |
| 2026-05-05 00:57 | 36.94352 | -125.21107 | 32097 ft | 487 kts | 253° |
| 2026-05-05 00:58 | 36.92177 | -125.29086 | 32099 ft | 487 kts | 253° |
| 2026-05-05 00:58 | 36.89993 | -125.37105 | 32091 ft | 487 kts | 253° |
| 2026-05-05 00:59 | 36.87813 | -125.45127 | 32095 ft | 487 kts | 253° |
| 2026-05-05 00:59 | 36.85630 | -125.53128 | 32095 ft | 487 kts | 253° |
| 2026-05-05 01:00 | 36.83441 | -125.61083 | 32090 ft | 486 kts | 253° |
| 2026-05-05 01:00 | 36.81241 | -125.69076 | 32090 ft | 486 kts | 253° |
| 2026-05-05 01:01 | 36.79041 | -125.77044 | 32098 ft | 486 kts | 253° |
| 2026-05-05 01:01 | 36.76826 | -125.85030 | 32102 ft | 486 kts | 253° |
| 2026-05-05 01:02 | 36.74611 | -125.93000 | 32101 ft | 486 kts | 253° |
| 2026-05-05 01:02 | 36.72413 | -126.00917 | 32097 ft | 486 kts | 253° |
| 2026-05-05 01:03 | 36.70183 | -126.08908 | 32107 ft | 486 kts | 253° |
| 2026-05-05 01:03 | 36.67959 | -126.16857 | 32108 ft | 486 kts | 253° |
| 2026-05-05 01:04 | 36.65736 | -126.24760 | 32108 ft | 485 kts | 253° |
| 2026-05-05 01:04 | 36.62386 | -126.36637 | 32109 ft | 485 kts | 253° |
| 2026-05-05 01:05 | 36.60137 | -126.44558 | 32110 ft | 484 kts | 253° |
| 2026-05-05 01:05 | 36.57895 | -126.52486 | 32113 ft | 484 kts | 253° |
| 2026-05-05 01:06 | 36.55665 | -126.60355 | 32108 ft | 483 kts | 253° |
| 2026-05-05 01:06 | 36.53417 | -126.68241 | 32108 ft | 482 kts | 253° |
| 2026-05-05 01:07 | 36.51171 | -126.76047 | 32106 ft | 482 kts | 253° |
| 2026-05-05 01:07 | 36.48915 | -126.83901 | 32107 ft | 481 kts | 253° |
| 2026-05-05 01:08 | 36.46667 | -126.91694 | 32108 ft | 481 kts | 253° |
| 2026-05-05 01:08 | 36.44401 | -126.99537 | 32111 ft | 480 kts | 253° |
| 2026-05-05 01:09 | 36.42156 | -127.07300 | 32105 ft | 480 kts | 253° |
| 2026-05-05 01:09 | 36.39885 | -127.15107 | 32105 ft | 479 kts | 253° |
| 2026-05-05 01:10 | 36.37607 | -127.22892 | 32103 ft | 479 kts | 253° |
| 2026-05-05 01:10 | 36.35323 | -127.30677 | 32104 ft | 479 kts | 253° |
| 2026-05-05 01:11 | 36.33066 | -127.38385 | 32105 ft | 478 kts | 253° |
| 2026-05-05 01:11 | 36.30786 | -127.46152 | 32100 ft | 478 kts | 253° |
| 2026-05-05 01:12 | 36.28497 | -127.53902 | 32101 ft | 477 kts | 253° |
| 2026-05-05 01:12 | 36.26226 | -127.61582 | 32106 ft | 477 kts | 253° |
| 2026-05-05 01:13 | 36.23940 | -127.69305 | 32105 ft | 477 kts | 253° |
| 2026-05-05 01:13 | 36.21637 | -127.77017 | 32106 ft | 476 kts | 253° |
| 2026-05-05 01:14 | 36.19336 | -127.84707 | 32104 ft | 475 kts | 253° |
| 2026-05-05 01:14 | 36.17575 | -127.90614 | 32110 ft | 475 kts | 253° |
| 2026-05-05 01:15 | 36.15279 | -127.98282 | 32113 ft | 474 kts | 253° |
| 2026-05-05 01:15 | 36.12989 | -128.05896 | 32111 ft | 473 kts | 253° |
| 2026-05-05 01:16 | 36.10696 | -128.13526 | 32119 ft | 472 kts | 253° |
| 2026-05-05 01:16 | 36.08400 | -128.21134 | 32123 ft | 471 kts | 253° |
| 2026-05-05 01:17 | 36.06106 | -128.28671 | 32116 ft | 470 kts | 252° |
| 2026-05-05 01:17 | 36.03802 | -128.36236 | 32115 ft | 469 kts | 252° |
| 2026-05-05 01:18 | 36.01508 | -128.43777 | 32117 ft | 467 kts | 252° |
| 2026-05-05 01:18 | 35.99234 | -128.51245 | 32121 ft | 466 kts | 252° |
| 2026-05-05 01:19 | 35.97325 | -128.57473 | 32122 ft | 465 kts | 252° |
| 2026-05-05 01:19 | 35.95028 | -128.64944 | 32121 ft | 464 kts | 252° |
| 2026-05-05 01:20 | 35.93248 | -128.70732 | 32118 ft | 464 kts | 252° |
| 2026-05-05 01:20 | 35.90954 | -128.78158 | 32119 ft | 463 kts | 252° |
| 2026-05-05 01:21 | 35.88661 | -128.85595 | 32117 ft | 462 kts | 252° |
| 2026-05-05 01:21 | 35.86372 | -128.92962 | 32112 ft | 461 kts | 252° |
| 2026-05-05 01:22 | 35.84084 | -129.00307 | 32123 ft | 461 kts | 252° |
| 2026-05-05 01:22 | 35.81791 | -129.07686 | 32121 ft | 460 kts | 252° |
| 2026-05-05 01:23 | 35.79499 | -129.15066 | 32129 ft | 460 kts | 252° |
| 2026-05-05 01:23 | 35.77202 | -129.22424 | 32125 ft | 460 kts | 252° |
| 2026-05-05 01:24 | 35.74901 | -129.29735 | 32115 ft | 459 kts | 252° |
| 2026-05-05 01:24 | 35.72588 | -129.37076 | 32123 ft | 459 kts | 252° |
| 2026-05-05 01:25 | 35.70277 | -129.44397 | 32120 ft | 458 kts | 252° |
| 2026-05-05 01:25 | 35.67977 | -129.51667 | 32127 ft | 458 kts | 252° |
| 2026-05-05 01:26 | 35.65667 | -129.58948 | 32121 ft | 458 kts | 252° |
| 2026-05-05 01:26 | 35.63339 | -129.66273 | 32122 ft | 458 kts | 252° |
| 2026-05-05 01:27 | 35.61034 | -129.73526 | 32118 ft | 457 kts | 252° |
| 2026-05-05 01:27 | 35.58706 | -129.80821 | 32133 ft | 457 kts | 252° |
| 2026-05-05 01:28 | 35.56393 | -129.88044 | 32134 ft | 457 kts | 252° |
| 2026-05-05 01:28 | 35.54061 | -129.95325 | 32132 ft | 457 kts | 252° |
| 2026-05-05 01:29 | 35.51733 | -130.02547 | 32130 ft | 456 kts | 252° |
| 2026-05-05 01:29 | 35.49394 | -130.09796 | 32127 ft | 456 kts | 252° |
| 2026-05-05 01:30 | 35.47054 | -130.17025 | 32132 ft | 456 kts | 252° |
| 2026-05-05 01:30 | 35.44714 | -130.24266 | 32133 ft | 455 kts | 252° |
| 2026-05-05 01:31 | 35.42388 | -130.31445 | 32137 ft | 455 kts | 252° |
| 2026-05-05 01:31 | 35.40029 | -130.38673 | 32135 ft | 455 kts | 252° |
| 2026-05-05 01:32 | 35.37677 | -130.45873 | 32138 ft | 454 kts | 252° |
| 2026-05-05 01:32 | 35.35330 | -130.53059 | 32140 ft | 453 kts | 252° |
| 2026-05-05 01:33 | 35.32995 | -130.60185 | 32140 ft | 452 kts | 252° |
| 2026-05-05 01:33 | 35.30645 | -130.67329 | 32135 ft | 452 kts | 252° |
| 2026-05-05 01:34 | 35.28289 | -130.74481 | 32141 ft | 452 kts | 252° |
| 2026-05-05 01:34 | 35.25948 | -130.81578 | 32139 ft | 451 kts | 252° |
| 2026-05-05 01:35 | 35.23581 | -130.88708 | 32142 ft | 451 kts | 252° |
| 2026-05-05 01:35 | 35.21222 | -130.95813 | 32143 ft | 450 kts | 252° |
| 2026-05-05 01:36 | 35.18882 | -131.02873 | 32144 ft | 450 kts | 252° |
| 2026-05-05 01:36 | 35.16519 | -131.09958 | 32143 ft | 449 kts | 252° |
| 2026-05-05 01:37 | 35.14140 | -131.17043 | 32147 ft | 449 kts | 252° |
| 2026-05-05 01:37 | 35.11788 | -131.24047 | 32144 ft | 448 kts | 252° |
| 2026-05-05 01:38 | 35.09428 | -131.31103 | 32147 ft | 448 kts | 252° |
| 2026-05-05 01:38 | 35.07065 | -131.38150 | 32151 ft | 447 kts | 252° |
| 2026-05-05 01:39 | 35.04712 | -131.45130 | 32150 ft | 446 kts | 252° |
| 2026-05-05 01:39 | 35.02331 | -131.52138 | 32154 ft | 446 kts | 252° |
| 2026-05-05 01:40 | 34.99955 | -131.59125 | 32151 ft | 445 kts | 252° |
| 2026-05-05 01:40 | 34.97610 | -131.66054 | 32147 ft | 444 kts | 252° |
| 2026-05-05 01:41 | 34.95249 | -131.73011 | 32149 ft | 444 kts | 252° |
| 2026-05-05 01:41 | 34.92873 | -131.79969 | 32151 ft | 443 kts | 252° |
| 2026-05-05 01:42 | 34.90496 | -131.86911 | 32153 ft | 443 kts | 252° |
| 2026-05-05 01:42 | 34.88130 | -131.93815 | 32152 ft | 443 kts | 252° |
| 2026-05-05 01:43 | 34.85751 | -132.00750 | 32157 ft | 443 kts | 252° |
| 2026-05-05 01:43 | 34.83369 | -132.07667 | 32161 ft | 442 kts | 252° |
| 2026-05-05 01:44 | 34.81004 | -132.14531 | 32172 ft | 442 kts | 252° |
| 2026-05-05 01:44 | 34.78620 | -132.21441 | 32170 ft | 442 kts | 252° |
| 2026-05-05 01:45 | 34.76232 | -132.28341 | 32170 ft | 441 kts | 252° |
| 2026-05-05 01:45 | 34.73842 | -132.35213 | 32175 ft | 441 kts | 252° |
| 2026-05-05 01:46 | 34.71460 | -132.42044 | 32168 ft | 441 kts | 253° |
| 2026-05-05 01:46 | 34.69068 | -132.48905 | 32173 ft | 440 kts | 253° |
| 2026-05-05 01:47 | 34.66693 | -132.55720 | 32173 ft | 440 kts | 253° |
| 2026-05-05 01:47 | 34.64294 | -132.62564 | 32172 ft | 439 kts | 253° |
| 2026-05-05 01:48 | 34.61893 | -132.69393 | 32182 ft | 438 kts | 253° |
| 2026-05-05 01:48 | 34.59517 | -132.76155 | 32181 ft | 438 kts | 253° |
| 2026-05-05 01:49 | 34.57115 | -132.82953 | 32182 ft | 437 kts | 253° |
| 2026-05-05 01:49 | 34.54720 | -132.89723 | 32184 ft | 436 kts | 254° |
| 2026-05-05 01:50 | 34.52322 | -132.96486 | 32186 ft | 435 kts | 254° |
| 2026-05-05 01:50 | 34.49939 | -133.03205 | 32185 ft | 435 kts | 255° |
| 2026-05-05 01:51 | 34.47556 | -133.09941 | 32180 ft | 434 kts | 255° |
| 2026-05-05 01:51 | 34.45171 | -133.16635 | 32186 ft | 434 kts | 255° |
| 2026-05-05 01:52 | 34.42768 | -133.23354 | 32193 ft | 433 kts | 255° |
| 2026-05-05 01:52 | 34.40386 | -133.30010 | 32195 ft | 432 kts | 255° |
| 2026-05-05 01:53 | 34.37988 | -133.36698 | 32190 ft | 432 kts | 255° |
| 2026-05-05 01:53 | 34.35605 | -133.43328 | 32191 ft | 431 kts | 255° |
| 2026-05-05 01:54 | 34.33212 | -133.49983 | 32192 ft | 431 kts | 255° |
| 2026-05-05 01:54 | 34.30812 | -133.56644 | 32192 ft | 430 kts | 255° |
| 2026-05-05 01:55 | 34.28432 | -133.63230 | 32193 ft | 430 kts | 255° |
| 2026-05-05 01:55 | 34.26031 | -133.69851 | 32195 ft | 430 kts | 255° |
| 2026-05-05 01:56 | 34.23623 | -133.76480 | 32196 ft | 430 kts | 255° |
| 2026-05-05 01:56 | 34.21219 | -133.83106 | 32195 ft | 429 kts | 255° |
| 2026-05-05 01:57 | 34.18826 | -133.89672 | 32203 ft | 429 kts | 254° |
| 2026-05-05 01:57 | 34.16403 | -133.96289 | 32205 ft | 429 kts | 254° |
| 2026-05-05 01:58 | 34.14003 | -134.02851 | 32203 ft | 429 kts | 254° |
| 2026-05-05 01:58 | 34.11583 | -134.09449 | 32207 ft | 429 kts | 254° |
| 2026-05-05 01:59 | 34.09159 | -134.16040 | 32207 ft | 429 kts | 253° |
| 2026-05-05 01:59 | 34.06749 | -134.22588 | 32208 ft | 428 kts | 253° |
| 2026-05-05 02:00 | 34.04325 | -134.29158 | 32207 ft | 428 kts | 253° |
| 2026-05-05 02:00 | 34.01905 | -134.35691 | 32205 ft | 428 kts | 253° |
| 2026-05-05 02:01 | 33.99479 | -134.42248 | 32209 ft | 428 kts | 253° |
| 2026-05-05 02:01 | 33.97059 | -134.48802 | 32210 ft | 428 kts | 253° |
| 2026-05-05 02:02 | 33.94660 | -134.55258 | 32213 ft | 427 kts | 253° |
| 2026-05-05 02:02 | 33.92223 | -134.61791 | 32228 ft | 427 kts | 252° |
| 2026-05-05 02:03 | 33.89786 | -134.68308 | 32231 ft | 427 kts | 252° |
| 2026-05-05 02:03 | 33.87365 | -134.74791 | 32228 ft | 426 kts | 252° |
| 2026-05-05 02:04 | 33.84953 | -134.81247 | 32227 ft | 426 kts | 252° |
| 2026-05-05 02:04 | 33.82517 | -134.87744 | 32227 ft | 425 kts | 252° |
| 2026-05-05 02:05 | 33.80081 | -134.94241 | 32226 ft | 425 kts | 252° |
| 2026-05-05 02:05 | 33.77658 | -135.00679 | 32228 ft | 425 kts | 251° |
| 2026-05-05 02:06 | 33.75621 | -135.06070 | 32230 ft | 425 kts | 251° |
| 2026-05-05 02:06 | 33.72771 | -135.13599 | 32234 ft | 425 kts | 251° |
| 2026-05-05 02:07 | 33.70725 | -135.18986 | 32234 ft | 425 kts | 251° |
| 2026-05-05 02:07 | 33.68280 | -135.25437 | 32235 ft | 424 kts | 251° |
| 2026-05-05 02:08 | 33.65836 | -135.31865 | 32242 ft | 424 kts | 251° |
| 2026-05-05 02:08 | 33.63382 | -135.38320 | 32240 ft | 424 kts | 251° |
| 2026-05-05 02:09 | 33.60933 | -135.44742 | 32241 ft | 424 kts | 251° |
| 2026-05-05 02:09 | 33.58461 | -135.51179 | 32243 ft | 424 kts | 250° |
| 2026-05-05 02:10 | 33.55987 | -135.57630 | 32241 ft | 424 kts | 250° |
| 2026-05-05 02:10 | 33.53524 | -135.64055 | 32241 ft | 424 kts | 250° |
| 2026-05-05 02:11 | 33.51062 | -135.70440 | 32241 ft | 424 kts | 250° |
| 2026-05-05 02:11 | 33.48584 | -135.76875 | 32245 ft | 423 kts | 250° |
| 2026-05-05 02:12 | 33.44890 | -135.86451 | 32248 ft | 423 kts | 250° |
| 2026-05-05 02:13 | 33.42425 | -135.92827 | 32247 ft | 423 kts | 250° |
| 2026-05-05 02:13 | 33.39941 | -135.99233 | 32241 ft | 423 kts | 250° |
| 2026-05-05 02:14 | 33.37453 | -136.05639 | 32245 ft | 424 kts | 250° |
| 2026-05-05 02:14 | 33.34971 | -136.11999 | 32245 ft | 424 kts | 250° |
| 2026-05-05 02:15 | 33.32469 | -136.18400 | 32245 ft | 424 kts | 249° |
| 2026-05-05 02:15 | 33.29984 | -136.24759 | 32244 ft | 424 kts | 249° |
| 2026-05-05 02:16 | 33.27488 | -136.31154 | 32248 ft | 424 kts | 249° |
| 2026-05-05 02:16 | 33.24981 | -136.37538 | 32251 ft | 424 kts | 249° |
| 2026-05-05 02:17 | 33.22484 | -136.43884 | 32258 ft | 424 kts | 249° |
| 2026-05-05 02:17 | 33.19962 | -136.50263 | 32255 ft | 424 kts | 249° |
| 2026-05-05 02:18 | 33.17444 | -136.56629 | 32254 ft | 423 kts | 249° |
| 2026-05-05 02:18 | 33.14944 | -136.62997 | 32253 ft | 423 kts | 249° |
| 2026-05-05 02:19 | 33.12444 | -136.69326 | 32259 ft | 423 kts | 249° |
| 2026-05-05 02:19 | 33.09924 | -136.75673 | 32260 ft | 423 kts | 248° |
| 2026-05-05 02:20 | 33.07406 | -136.81983 | 32259 ft | 423 kts | 248° |
| 2026-05-05 02:20 | 33.04879 | -136.88313 | 32257 ft | 422 kts | 248° |
| 2026-05-05 02:21 | 33.02369 | -136.94614 | 32254 ft | 422 kts | 248° |
| 2026-05-05 02:21 | 32.99850 | -137.00957 | 32258 ft | 422 kts | 248° |
| 2026-05-05 02:22 | 32.97332 | -137.07243 | 32258 ft | 422 kts | 248° |
| 2026-05-05 02:22 | 32.94790 | -137.13561 | 32254 ft | 422 kts | 248° |
| 2026-05-05 02:23 | 32.92252 | -137.19864 | 32251 ft | 422 kts | 248° |
| 2026-05-05 02:23 | 32.89711 | -137.26185 | 32251 ft | 422 kts | 248° |
| 2026-05-05 02:24 | 32.87184 | -137.32450 | 32251 ft | 422 kts | 248° |
| 2026-05-05 02:24 | 32.84639 | -137.38739 | 32254 ft | 422 kts | 248° |
| 2026-05-05 02:25 | 32.82105 | -137.44992 | 32254 ft | 421 kts | 248° |
| 2026-05-05 02:25 | 32.79555 | -137.51284 | 32257 ft | 421 kts | 248° |
| 2026-05-05 02:26 | 32.77009 | -137.57565 | 32261 ft | 421 kts | 248° |
| 2026-05-05 02:26 | 32.74454 | -137.63848 | 32266 ft | 421 kts | 247° |
| 2026-05-05 02:27 | 32.71910 | -137.70083 | 32269 ft | 421 kts | 247° |
| 2026-05-05 02:27 | 32.69349 | -137.76349 | 32268 ft | 421 kts | 247° |
| 2026-05-05 02:28 | 32.66798 | -137.82575 | 32267 ft | 421 kts | 247° |
| 2026-05-05 02:28 | 32.64233 | -137.88831 | 32270 ft | 421 kts | 247° |
| 2026-05-05 02:29 | 32.61675 | -137.95060 | 32274 ft | 421 kts | 247° |
| 2026-05-05 02:29 | 32.59100 | -138.01317 | 32275 ft | 421 kts | 247° |
| 2026-05-05 02:30 | 32.56533 | -138.07550 | 32275 ft | 421 kts | 247° |
| 2026-05-05 02:30 | 32.53974 | -138.13749 | 32275 ft | 420 kts | 247° |
| 2026-05-05 02:31 | 32.51395 | -138.19969 | 32279 ft | 420 kts | 247° |
| 2026-05-05 02:31 | 32.48808 | -138.26208 | 32278 ft | 420 kts | 247° |
| 2026-05-05 02:32 | 32.46244 | -138.32396 | 32278 ft | 421 kts | 247° |
| 2026-05-05 02:32 | 32.43650 | -138.38637 | 32276 ft | 421 kts | 247° |
| 2026-05-05 02:33 | 32.41081 | -138.44820 | 32277 ft | 421 kts | 247° |
| 2026-05-05 02:33 | 32.38483 | -138.51048 | 32278 ft | 421 kts | 247° |
| 2026-05-05 02:34 | 32.35884 | -138.57261 | 32280 ft | 421 kts | 247° |
| 2026-05-05 02:34 | 32.33292 | -138.63454 | 32279 ft | 421 kts | 247° |
| 2026-05-05 02:35 | 32.30689 | -138.69655 | 32276 ft | 421 kts | 247° |
| 2026-05-05 02:35 | 32.28095 | -138.75817 | 32275 ft | 421 kts | 247° |
| 2026-05-05 02:36 | 32.25482 | -138.82036 | 32276 ft | 421 kts | 247° |
| 2026-05-05 02:36 | 32.22867 | -138.88240 | 32277 ft | 421 kts | 247° |
| 2026-05-05 02:37 | 32.20262 | -138.94410 | 32280 ft | 422 kts | 247° |
| 2026-05-05 02:37 | 32.17643 | -139.00600 | 32282 ft | 422 kts | 247° |
| 2026-05-05 02:38 | 32.15010 | -139.06805 | 32285 ft | 422 kts | 247° |
| 2026-05-05 02:38 | 32.12529 | -139.12648 | 32286 ft | 422 kts | 247° |
| 2026-05-05 02:39 | 32.09890 | -139.18862 | 32284 ft | 422 kts | 247° |
| 2026-05-05 02:39 | 32.07260 | -139.25039 | 32287 ft | 422 kts | 247° |
| 2026-05-05 02:40 | 32.04616 | -139.31229 | 32285 ft | 422 kts | 247° |
| 2026-05-05 02:40 | 32.01992 | -139.37382 | 32283 ft | 422 kts | 247° |
| 2026-05-05 02:41 | 31.99348 | -139.43566 | 32283 ft | 422 kts | 247° |
| 2026-05-05 02:41 | 31.96685 | -139.49753 | 32283 ft | 422 kts | 247° |
| 2026-05-05 02:42 | 31.94040 | -139.55896 | 32283 ft | 423 kts | 247° |
| 2026-05-05 02:42 | 31.91410 | -139.62026 | 32283 ft | 423 kts | 247° |
| 2026-05-05 02:43 | 31.88766 | -139.68176 | 32287 ft | 422 kts | 246° |
| 2026-05-05 02:43 | 31.86102 | -139.74343 | 32285 ft | 422 kts | 246° |
| 2026-05-05 02:44 | 31.83431 | -139.80514 | 32280 ft | 422 kts | 246° |
| 2026-05-05 02:44 | 31.80774 | -139.86643 | 32279 ft | 422 kts | 246° |
| 2026-05-05 02:45 | 31.78106 | -139.92804 | 32279 ft | 422 kts | 246° |
| 2026-05-05 02:45 | 31.75448 | -139.98908 | 32284 ft | 422 kts | 246° |
| 2026-05-05 02:46 | 31.72762 | -140.05069 | 32280 ft | 422 kts | 246° |
| 2026-05-05 02:46 | 31.70103 | -140.11173 | 32281 ft | 421 kts | 246° |
| 2026-05-05 02:47 | 31.67426 | -140.17305 | 32278 ft | 421 kts | 246° |
| 2026-05-05 02:47 | 31.64742 | -140.23437 | 32272 ft | 421 kts | 246° |
| 2026-05-05 02:48 | 31.62055 | -140.29555 | 32271 ft | 421 kts | 246° |
| 2026-05-05 02:48 | 31.59369 | -140.35678 | 32269 ft | 421 kts | 246° |
| 2026-05-05 02:49 | 31.56703 | -140.41750 | 32271 ft | 421 kts | 246° |
| 2026-05-05 02:49 | 31.54014 | -140.47866 | 32272 ft | 421 kts | 246° |
| 2026-05-05 02:50 | 31.51329 | -140.53942 | 32272 ft | 421 kts | 246° |
| 2026-05-05 02:50 | 31.49267 | -140.58587 | 32269 ft | 421 kts | 246° |
| 2026-05-05 02:51 | 31.46569 | -140.64663 | 32278 ft | 421 kts | 246° |
| 2026-05-05 02:51 | 31.43870 | -140.70780 | 32280 ft | 421 kts | 246° |
| 2026-05-05 02:52 | 31.41173 | -140.76881 | 32283 ft | 421 kts | 246° |
| 2026-05-05 02:52 | 31.38482 | -140.82933 | 32281 ft | 421 kts | 246° |
| 2026-05-05 02:53 | 31.35760 | -140.89026 | 32284 ft | 421 kts | 246° |
| 2026-05-05 02:54 | 31.33370 | -140.92805 | 32278 ft | 426 kts | 235° |
| 2026-05-05 02:55 | 31.30896 | -140.97742 | 32271 ft | 418 kts | 250° |
| 2026-05-05 02:55 | 31.28755 | -141.04029 | 32270 ft | 418 kts | 251° |
| 2026-05-05 02:56 | 31.26377 | -141.10262 | 32279 ft | 422 kts | 247° |
| 2026-05-05 02:56 | 31.25031 | -141.13340 | 32410 ft | 426 kts | 245° |
| 2026-05-05 02:56 | 31.23628 | -141.16399 | 32612 ft | 428 kts | 245° |
| 2026-05-05 02:56 | 31.22201 | -141.19454 | 32872 ft | 428 kts | 245° |
| 2026-05-05 02:57 | 31.21084 | -141.21847 | 33101 ft | 427 kts | 245° |
| 2026-05-05 02:57 | 31.19772 | -141.24688 | 33370 ft | 426 kts | 245° |
| 2026-05-05 02:57 | 31.18384 | -141.27736 | 33661 ft | 425 kts | 246° |
| 2026-05-05 02:57 | 31.17029 | -141.30753 | 33945 ft | 424 kts | 246° |
| 2026-05-05 02:58 | 31.15659 | -141.33811 | 34210 ft | 424 kts | 246° |
| 2026-05-05 02:58 | 31.12912 | -141.39918 | 34275 ft | 423 kts | 246° |
| 2026-05-05 02:59 | 31.10558 | -141.45117 | 34269 ft | 423 kts | 245° |
| 2026-05-05 02:59 | 31.07798 | -141.51189 | 34275 ft | 423 kts | 245° |
| 2026-05-05 03:00 | 31.05078 | -141.57176 | 34273 ft | 423 kts | 246° |
| 2026-05-05 03:00 | 31.02317 | -141.63239 | 34280 ft | 423 kts | 245° |
| 2026-05-05 03:01 | 30.99544 | -141.69320 | 34278 ft | 424 kts | 245° |
| 2026-05-05 03:01 | 30.96788 | -141.75368 | 34282 ft | 424 kts | 245° |
| 2026-05-05 03:02 | 30.94016 | -141.81432 | 34278 ft | 424 kts | 245° |
| 2026-05-05 03:02 | 30.91254 | -141.87469 | 34282 ft | 424 kts | 245° |
| 2026-05-05 03:03 | 30.88466 | -141.93545 | 34289 ft | 424 kts | 245° |
| 2026-05-05 03:03 | 30.85695 | -141.99563 | 34285 ft | 424 kts | 245° |
| 2026-05-05 03:04 | 30.82906 | -142.05627 | 34284 ft | 423 kts | 245° |
| 2026-05-05 03:04 | 30.80137 | -142.11654 | 34283 ft | 423 kts | 245° |
| 2026-05-05 03:05 | 30.77633 | -142.17082 | 34280 ft | 423 kts | 245° |
| 2026-05-05 03:05 | 30.74844 | -142.23123 | 34276 ft | 423 kts | 245° |
| 2026-05-05 03:06 | 30.72055 | -142.29153 | 34281 ft | 423 kts | 245° |
| 2026-05-05 03:06 | 30.69274 | -142.35139 | 34281 ft | 423 kts | 245° |
| 2026-05-05 03:07 | 30.66468 | -142.41174 | 34280 ft | 424 kts | 245° |
| 2026-05-05 03:07 | 30.63651 | -142.47221 | 34282 ft | 424 kts | 245° |
| 2026-05-05 03:08 | 30.60860 | -142.53218 | 34281 ft | 424 kts | 245° |
| 2026-05-05 03:08 | 30.58045 | -142.59259 | 34286 ft | 424 kts | 245° |
| 2026-05-05 03:09 | 30.55252 | -142.65243 | 34286 ft | 425 kts | 245° |
| 2026-05-05 03:09 | 30.52431 | -142.71273 | 34282 ft | 425 kts | 245° |
| 2026-05-05 03:10 | 30.49603 | -142.77310 | 34287 ft | 425 kts | 245° |
| 2026-05-05 03:10 | 30.46766 | -142.83353 | 34289 ft | 426 kts | 245° |
| 2026-05-05 03:11 | 30.43960 | -142.89317 | 34289 ft | 426 kts | 244° |
| 2026-05-05 03:11 | 30.41111 | -142.95358 | 34287 ft | 426 kts | 244° |
| 2026-05-05 03:12 | 30.38267 | -143.01386 | 34292 ft | 426 kts | 244° |
| 2026-05-05 03:12 | 30.35420 | -143.07416 | 34290 ft | 426 kts | 244° |
| 2026-05-05 03:13 | 30.32586 | -143.13405 | 34287 ft | 426 kts | 244° |
| 2026-05-05 03:13 | 30.29724 | -143.19446 | 34289 ft | 427 kts | 244° |
| 2026-05-05 03:14 | 30.26878 | -143.25443 | 34287 ft | 427 kts | 244° |
| 2026-05-05 03:14 | 30.24012 | -143.31479 | 34287 ft | 427 kts | 244° |
| 2026-05-05 03:15 | 30.22112 | -143.35469 | 34284 ft | 427 kts | 244° |
| 2026-05-05 03:15 | 30.19507 | -143.41032 | 34284 ft | 427 kts | 244° |
| 2026-05-05 03:16 | 30.16694 | -143.46891 | 34280 ft | 427 kts | 244° |
| 2026-05-05 03:16 | 30.13813 | -143.52844 | 34281 ft | 427 kts | 244° |
| 2026-05-05 03:17 | 30.10948 | -143.58820 | 34275 ft | 427 kts | 244° |
| 2026-05-05 03:17 | 30.08519 | -143.63901 | 34274 ft | 427 kts | 244° |
| 2026-05-05 03:18 | 30.05632 | -143.69913 | 34275 ft | 428 kts | 244° |
| 2026-05-05 03:18 | 30.02765 | -143.75888 | 34273 ft | 428 kts | 244° |
| 2026-05-05 03:19 | 29.99151 | -143.83408 | 34271 ft | 428 kts | 244° |
| 2026-05-05 03:19 | 29.96241 | -143.89416 | 34267 ft | 429 kts | 244° |
| 2026-05-05 03:20 | 29.93532 | -143.95014 | 34269 ft | 429 kts | 244° |
| 2026-05-05 03:20 | 29.90650 | -144.00984 | 34271 ft | 429 kts | 244° |
| 2026-05-05 03:21 | 29.87734 | -144.06995 | 34272 ft | 430 kts | 244° |
| 2026-05-05 03:21 | 29.84807 | -144.13015 | 34272 ft | 430 kts | 244° |
| 2026-05-05 03:22 | 29.81886 | -144.19035 | 34272 ft | 430 kts | 244° |
| 2026-05-05 03:22 | 29.78975 | -144.25036 | 34273 ft | 431 kts | 244° |
| 2026-05-05 03:23 | 29.76034 | -144.31062 | 34273 ft | 431 kts | 244° |
| 2026-05-05 03:23 | 29.73093 | -144.37086 | 34272 ft | 431 kts | 244° |
| 2026-05-05 03:24 | 29.70169 | -144.43075 | 34271 ft | 432 kts | 244° |
| 2026-05-05 03:24 | 29.67211 | -144.49101 | 34271 ft | 432 kts | 243° |
| 2026-05-05 03:25 | 29.64251 | -144.55129 | 34272 ft | 433 kts | 243° |
| 2026-05-05 03:25 | 29.61308 | -144.61121 | 34271 ft | 433 kts | 243° |
| 2026-05-05 03:26 | 29.58343 | -144.67161 | 34270 ft | 433 kts | 243° |
| 2026-05-05 03:26 | 29.55372 | -144.73195 | 34272 ft | 433 kts | 243° |
| 2026-05-05 03:27 | 29.52391 | -144.79236 | 34271 ft | 434 kts | 243° |
| 2026-05-05 03:27 | 29.49429 | -144.85231 | 34270 ft | 434 kts | 243° |
| 2026-05-05 03:28 | 29.46439 | -144.91264 | 34270 ft | 434 kts | 243° |
| 2026-05-05 03:28 | 29.43451 | -144.97290 | 34271 ft | 434 kts | 243° |
| 2026-05-05 03:29 | 29.40459 | -145.03317 | 34271 ft | 435 kts | 243° |
| 2026-05-05 03:29 | 29.37475 | -145.09320 | 34267 ft | 435 kts | 243° |
| 2026-05-05 03:30 | 29.34476 | -145.15347 | 34268 ft | 435 kts | 243° |
| 2026-05-05 03:30 | 29.31472 | -145.21365 | 34269 ft | 435 kts | 243° |
| 2026-05-05 03:31 | 29.28484 | -145.27346 | 34262 ft | 435 kts | 243° |
| 2026-05-05 03:31 | 29.25464 | -145.33392 | 34261 ft | 435 kts | 243° |
| 2026-05-05 03:32 | 29.22474 | -145.39355 | 34258 ft | 435 kts | 243° |
| 2026-05-05 03:32 | 29.19459 | -145.45372 | 34260 ft | 435 kts | 243° |
| 2026-05-05 03:33 | 29.16441 | -145.51381 | 34266 ft | 435 kts | 243° |
| 2026-05-05 03:33 | 29.13420 | -145.57395 | 34263 ft | 435 kts | 243° |
| 2026-05-05 03:34 | 29.10399 | -145.63381 | 34267 ft | 435 kts | 242° |
| 2026-05-05 03:34 | 29.07391 | -145.69345 | 34264 ft | 435 kts | 242° |
| 2026-05-05 03:35 | 29.04368 | -145.75339 | 34262 ft | 435 kts | 242° |
| 2026-05-05 03:35 | 29.01334 | -145.81325 | 34265 ft | 434 kts | 242° |
| 2026-05-05 03:36 | 28.98302 | -145.87303 | 34262 ft | 434 kts | 242° |
| 2026-05-05 03:36 | 28.95294 | -145.93228 | 34259 ft | 434 kts | 242° |
| 2026-05-05 03:37 | 28.92260 | -145.99198 | 34263 ft | 434 kts | 242° |
| 2026-05-05 03:37 | 28.89227 | -146.05153 | 34273 ft | 434 kts | 242° |
| 2026-05-05 03:38 | 28.86188 | -146.11108 | 34263 ft | 434 kts | 242° |
| 2026-05-05 03:38 | 28.83170 | -146.17029 | 34266 ft | 434 kts | 242° |
| 2026-05-05 03:39 | 28.80133 | -146.22979 | 34255 ft | 434 kts | 242° |
| 2026-05-05 03:39 | 28.77601 | -146.27926 | 34255 ft | 434 kts | 242° |
| 2026-05-05 03:40 | 28.74053 | -146.34831 | 34264 ft | 434 kts | 242° |
| 2026-05-05 03:40 | 28.69357 | -146.43990 | 34254 ft | 433 kts | 242° |
| 2026-05-05 03:41 | 28.64268 | -146.53882 | 34257 ft | 434 kts | 242° |
| 2026-05-05 03:41 | 28.58147 | -146.65749 | 34256 ft | 434 kts | 242° |
| 2026-05-05 03:42 | 28.52047 | -146.77516 | 34251 ft | 434 kts | 242° |
| 2026-05-05 03:42 | 28.45908 | -146.89344 | 34256 ft | 434 kts | 241° |
| 2026-05-05 03:43 | 28.39751 | -147.01166 | 34252 ft | 434 kts | 241° |
| 2026-05-05 03:43 | 28.33624 | -147.12906 | 34251 ft | 434 kts | 241° |
| 2026-05-05 03:44 | 28.27452 | -147.24706 | 34253 ft | 434 kts | 241° |
| 2026-05-05 03:44 | 28.21267 | -147.36487 | 34251 ft | 433 kts | 241° |
| 2026-05-05 03:45 | 28.15120 | -147.48157 | 34244 ft | 433 kts | 241° |
| 2026-05-05 03:45 | 28.08937 | -147.59863 | 34244 ft | 432 kts | 241° |
| 2026-05-05 03:46 | 28.02753 | -147.71561 | 34245 ft | 432 kts | 241° |
| 2026-05-05 03:46 | 27.96614 | -147.83144 | 34237 ft | 431 kts | 241° |
| 2026-05-05 03:47 | 27.90402 | -147.94783 | 34241 ft | 431 kts | 241° |
| 2026-05-05 03:47 | 27.84214 | -148.06404 | 34240 ft | 430 kts | 241° |
| 2026-05-05 03:48 | 27.78063 | -148.17882 | 34229 ft | 429 kts | 241° |
| 2026-05-05 03:48 | 27.71883 | -148.29386 | 34229 ft | 428 kts | 241° |
| 2026-05-05 03:49 | 27.65694 | -148.40898 | 34229 ft | 428 kts | 241° |
| 2026-05-05 03:49 | 27.59501 | -148.52367 | 34228 ft | 428 kts | 241° |
| 2026-05-05 03:50 | 27.53322 | -148.63771 | 34224 ft | 428 kts | 241° |
| 2026-05-05 03:50 | 27.47119 | -148.75224 | 34223 ft | 428 kts | 241° |
| 2026-05-05 03:51 | 27.40895 | -148.86640 | 34229 ft | 428 kts | 241° |
| 2026-05-05 03:51 | 27.34669 | -148.98094 | 34229 ft | 428 kts | 241° |
| 2026-05-05 03:52 | 27.28433 | -149.09503 | 34226 ft | 428 kts | 241° |
| 2026-05-05 03:52 | 27.22213 | -149.20839 | 34224 ft | 428 kts | 240° |
| 2026-05-05 03:53 | 27.15961 | -149.32218 | 34218 ft | 427 kts | 240° |
| 2026-05-05 03:53 | 27.09691 | -149.43581 | 34217 ft | 428 kts | 240° |
| 2026-05-05 03:54 | 27.03458 | -149.54867 | 34216 ft | 428 kts | 240° |
| 2026-05-05 03:54 | 26.97179 | -149.66224 | 34211 ft | 428 kts | 240° |
| 2026-05-05 03:55 | 26.90874 | -149.77582 | 34216 ft | 428 kts | 240° |
| 2026-05-05 03:55 | 26.84552 | -149.88915 | 34219 ft | 428 kts | 240° |
| 2026-05-05 03:56 | 26.78269 | -150.00187 | 34211 ft | 429 kts | 240° |
| 2026-05-05 03:56 | 26.71944 | -150.11491 | 34217 ft | 428 kts | 240° |
| 2026-05-05 03:57 | 26.65590 | -150.22812 | 34213 ft | 428 kts | 240° |
| 2026-05-05 03:57 | 26.59292 | -150.34020 | 34214 ft | 428 kts | 240° |
| 2026-05-05 03:58 | 26.52951 | -150.45284 | 34214 ft | 428 kts | 240° |
| 2026-05-05 03:58 | 26.46593 | -150.56534 | 34218 ft | 427 kts | 240° |
| 2026-05-05 03:59 | 26.40270 | -150.67668 | 34215 ft | 427 kts | 240° |
| 2026-05-05 03:59 | 26.33905 | -150.78872 | 34212 ft | 427 kts | 240° |
| 2026-05-05 04:00 | 26.27530 | -150.90077 | 34211 ft | 427 kts | 240° |
| 2026-05-05 04:00 | 26.21193 | -151.01168 | 34192 ft | 426 kts | 240° |
| 2026-05-05 04:01 | 26.14835 | -151.12322 | 34204 ft | 426 kts | 240° |
| 2026-05-05 04:01 | 26.08475 | -151.23392 | 34199 ft | 426 kts | 240° |
| 2026-05-05 04:02 | 26.02072 | -151.34519 | 34202 ft | 425 kts | 240° |
| 2026-05-05 04:02 | 25.95740 | -151.45536 | 34209 ft | 425 kts | 240° |
| 2026-05-05 04:03 | 25.89343 | -151.56585 | 34200 ft | 425 kts | 240° |
| 2026-05-05 04:03 | 25.82927 | -151.67663 | 34198 ft | 425 kts | 240° |
| 2026-05-05 04:04 | 25.76557 | -151.78627 | 34200 ft | 425 kts | 240° |
| 2026-05-05 04:04 | 25.70124 | -151.89670 | 34199 ft | 424 kts | 240° |
| 2026-05-05 04:05 | 25.63719 | -152.00661 | 34198 ft | 424 kts | 240° |
| 2026-05-05 04:05 | 25.57337 | -152.11583 | 34194 ft | 424 kts | 240° |
| 2026-05-05 04:06 | 25.50917 | -152.22548 | 34191 ft | 424 kts | 240° |
| 2026-05-05 04:06 | 25.44504 | -152.33484 | 34189 ft | 423 kts | 240° |
| 2026-05-05 04:07 | 25.38063 | -152.44406 | 34188 ft | 423 kts | 240° |
| 2026-05-05 04:07 | 25.31652 | -152.55269 | 34185 ft | 423 kts | 240° |
| 2026-05-05 04:08 | 25.25206 | -152.66181 | 34184 ft | 423 kts | 240° |
| 2026-05-05 04:08 | 25.18758 | -152.77048 | 34183 ft | 423 kts | 240° |
| 2026-05-05 04:09 | 25.12288 | -152.87940 | 34179 ft | 423 kts | 240° |
| 2026-05-05 04:09 | 25.05866 | -152.98725 | 34177 ft | 423 kts | 240° |
| 2026-05-05 04:10 | 24.99398 | -153.09570 | 34176 ft | 423 kts | 240° |
| 2026-05-05 04:10 | 24.92924 | -153.20390 | 34178 ft | 422 kts | 240° |
| 2026-05-05 04:11 | 24.86478 | -153.31137 | 34174 ft | 422 kts | 240° |
| 2026-05-05 04:11 | 24.79982 | -153.41931 | 34173 ft | 421 kts | 239° |
| 2026-05-05 04:12 | 24.73504 | -153.52685 | 34169 ft | 421 kts | 240° |
| 2026-05-05 04:12 | 24.67071 | -153.63352 | 34174 ft | 421 kts | 239° |
| 2026-05-05 04:13 | 24.60600 | -153.74066 | 34169 ft | 420 kts | 240° |
| 2026-05-05 04:13 | 24.54106 | -153.84766 | 34173 ft | 420 kts | 239° |
| 2026-05-05 04:14 | 24.47609 | -153.95456 | 34171 ft | 419 kts | 240° |
| 2026-05-05 04:14 | 24.41134 | -154.06103 | 34168 ft | 419 kts | 239° |
| 2026-05-05 04:15 | 24.34650 | -154.16728 | 34172 ft | 419 kts | 239° |
| 2026-05-05 04:15 | 24.28186 | -154.27276 | 34158 ft | 419 kts | 239° |
| 2026-05-05 04:16 | 24.21646 | -154.37855 | 34158 ft | 419 kts | 239° |
| 2026-05-05 04:16 | 24.15096 | -154.48432 | 34155 ft | 419 kts | 239° |
| 2026-05-05 04:17 | 24.08524 | -154.59014 | 34156 ft | 419 kts | 239° |
| 2026-05-05 04:17 | 24.02000 | -154.69501 | 34154 ft | 420 kts | 239° |
| 2026-05-05 04:18 | 23.95411 | -154.80066 | 34158 ft | 420 kts | 239° |
| 2026-05-05 04:18 | 23.88815 | -154.90630 | 34149 ft | 420 kts | 239° |
| 2026-05-05 04:19 | 23.82210 | -155.01191 | 34150 ft | 421 kts | 238° |
| 2026-05-05 04:19 | 23.75593 | -155.11732 | 34147 ft | 421 kts | 238° |
| 2026-05-05 04:20 | 23.69006 | -155.22213 | 34149 ft | 421 kts | 238° |
| 2026-05-05 04:20 | 23.62353 | -155.32768 | 34150 ft | 421 kts | 238° |
| 2026-05-05 04:21 | 23.55704 | -155.43318 | 34146 ft | 422 kts | 238° |
| 2026-05-05 04:21 | 23.47791 | -155.52816 | 34141 ft | 428 kts | 225° |
| 2026-05-05 04:22 | 23.38979 | -155.61444 | 34144 ft | 429 kts | 225° |
| 2026-05-05 04:22 | 23.30101 | -155.70145 | 34145 ft | 430 kts | 225° |
| 2026-05-05 04:23 | 23.21210 | -155.78834 | 34139 ft | 430 kts | 225° |
| 2026-05-05 04:23 | 23.12299 | -155.87528 | 34140 ft | 431 kts | 225° |
| 2026-05-05 04:24 | 23.03350 | -155.96230 | 34153 ft | 430 kts | 225° |
| 2026-05-05 04:25 | 22.90055 | -156.09135 | 34145 ft | 428 kts | 225° |
| 2026-05-05 04:25 | 22.81185 | -156.17733 | 34143 ft | 427 kts | 225° |
| 2026-05-05 04:26 | 22.72304 | -156.26326 | 34136 ft | 427 kts | 225° |
| 2026-05-05 04:26 | 22.63416 | -156.34896 | 34133 ft | 427 kts | 225° |
| 2026-05-05 04:27 | 22.54576 | -156.43430 | 34131 ft | 428 kts | 225° |
| 2026-05-05 04:27 | 22.45657 | -156.52003 | 34130 ft | 429 kts | 225° |
| 2026-05-05 04:28 | 22.38228 | -156.59129 | 34135 ft | 429 kts | 225° |
| 2026-05-05 04:28 | 22.30079 | -156.66673 | 34133 ft | 430 kts | 223° |
| 2026-05-05 04:29 | 22.25407 | -156.70756 | 34117 ft | 432 kts | 222° |
| 2026-05-05 04:29 | 22.23099 | -156.72779 | 34012 ft | 433 kts | 223° |
| 2026-05-05 04:29 | 22.20759 | -156.74845 | 33291 ft | 435 kts | 223° |
| 2026-05-05 04:29 | 22.18425 | -156.76923 | 32702 ft | 434 kts | 223° |
| 2026-05-05 04:30 | 22.16102 | -156.78994 | 32187 ft | 431 kts | 223° |
| 2026-05-05 04:30 | 22.13786 | -156.81056 | 31689 ft | 428 kts | 222° |
| 2026-05-05 04:30 | 22.11521 | -156.83072 | 31131 ft | 424 kts | 222° |
| 2026-05-05 04:30 | 22.09256 | -156.85085 | 30497 ft | 420 kts | 222° |
| 2026-05-05 04:31 | 22.07004 | -156.87084 | 29819 ft | 416 kts | 222° |
| 2026-05-05 04:31 | 22.04785 | -156.89051 | 29331 ft | 408 kts | 222° |
| 2026-05-05 04:31 | 22.02605 | -156.90983 | 28906 ft | 402 kts | 222° |
| 2026-05-05 04:31 | 22.00479 | -156.92867 | 28498 ft | 398 kts | 222° |
| 2026-05-05 04:32 | 21.98353 | -156.94747 | 28082 ft | 393 kts | 222° |
| 2026-05-05 04:32 | 21.96249 | -156.96607 | 27683 ft | 389 kts | 222° |
| 2026-05-05 04:32 | 21.94160 | -156.98455 | 27284 ft | 386 kts | 221° |
| 2026-05-05 04:32 | 21.92092 | -157.00284 | 26884 ft | 383 kts | 221° |
| 2026-05-05 04:33 | 21.90034 | -157.02106 | 26492 ft | 381 kts | 221° |
| 2026-05-05 04:33 | 21.87989 | -157.03917 | 26104 ft | 379 kts | 221° |
| 2026-05-05 04:33 | 21.85986 | -157.05689 | 25712 ft | 377 kts | 221° |
| 2026-05-05 04:33 | 21.83956 | -157.07483 | 25313 ft | 375 kts | 221° |
| 2026-05-05 04:34 | 21.81944 | -157.09260 | 24901 ft | 373 kts | 221° |
| 2026-05-05 04:34 | 21.79933 | -157.11031 | 24490 ft | 372 kts | 221° |
| 2026-05-05 04:34 | 21.77935 | -157.12793 | 24078 ft | 371 kts | 221° |
| 2026-05-05 04:34 | 21.75943 | -157.14551 | 23647 ft | 370 kts | 221° |
| 2026-05-05 04:35 | 21.73977 | -157.16282 | 23190 ft | 368 kts | 221° |
| 2026-05-05 04:35 | 21.72004 | -157.18018 | 22751 ft | 365 kts | 221° |
| 2026-05-05 04:35 | 21.70040 | -157.19748 | 22312 ft | 363 kts | 222° |
| 2026-05-05 04:35 | 21.68237 | -157.21618 | 21864 ft | 359 kts | 227° |
| 2026-05-05 04:36 | 21.66500 | -157.23548 | 21432 ft | 356 kts | 227° |
| 2026-05-05 04:36 | 21.64774 | -157.25464 | 21004 ft | 354 kts | 227° |
| 2026-05-05 04:36 | 21.63086 | -157.27334 | 20571 ft | 352 kts | 227° |
| 2026-05-05 04:36 | 21.61379 | -157.29221 | 20135 ft | 350 kts | 227° |
| 2026-05-05 04:37 | 21.59682 | -157.31100 | 19708 ft | 349 kts | 227° |
| 2026-05-05 04:37 | 21.57993 | -157.32970 | 19289 ft | 347 kts | 227° |
| 2026-05-05 04:37 | 21.56333 | -157.34804 | 18870 ft | 345 kts | 227° |
| 2026-05-05 04:37 | 21.54659 | -157.36649 | 18442 ft | 344 kts | 227° |
| 2026-05-05 04:38 | 21.52990 | -157.38488 | 17984 ft | 342 kts | 227° |
| 2026-05-05 04:38 | 21.51338 | -157.40309 | 17559 ft | 339 kts | 227° |
| 2026-05-05 04:38 | 21.49702 | -157.42111 | 17129 ft | 335 kts | 227° |
| 2026-05-05 04:38 | 21.48078 | -157.43902 | 16727 ft | 333 kts | 227° |
| 2026-05-05 04:39 | 21.46577 | -157.45557 | 16345 ft | 330 kts | 227° |
| 2026-05-05 04:39 | 21.44990 | -157.47309 | 15947 ft | 328 kts | 227° |
| 2026-05-05 04:39 | 21.43402 | -157.49059 | 15547 ft | 325 kts | 227° |
| 2026-05-05 04:39 | 21.41938 | -157.50848 | 15156 ft | 322 kts | 237° |
| 2026-05-05 04:40 | 21.40901 | -157.52945 | 14920 ft | 312 kts | 249° |
| 2026-05-05 04:40 | 21.40103 | -157.55091 | 14625 ft | 308 kts | 249° |
| 2026-05-05 04:40 | 21.39300 | -157.57207 | 14269 ft | 306 kts | 249° |
| 2026-05-05 04:40 | 21.38489 | -157.59321 | 13906 ft | 305 kts | 249° |
| 2026-05-05 04:41 | 21.37684 | -157.61417 | 13507 ft | 303 kts | 249° |
| 2026-05-05 04:41 | 21.36884 | -157.63504 | 13004 ft | 301 kts | 249° |
| 2026-05-05 04:41 | 21.36100 | -157.65550 | 12402 ft | 300 kts | 249° |
| 2026-05-05 04:41 | 21.35306 | -157.67629 | 11859 ft | 300 kts | 249° |
| 2026-05-05 04:42 | 21.34520 | -157.69688 | 11362 ft | 300 kts | 248° |
| 2026-05-05 04:42 | 21.33731 | -157.71759 | 10876 ft | 299 kts | 248° |
| 2026-05-05 04:42 | 21.32938 | -157.73831 | 10383 ft | 299 kts | 248° |
| 2026-05-05 04:42 | 21.32148 | -157.75900 | 9848 ft | 300 kts | 248° |
| 2026-05-05 04:43 | 21.31360 | -157.77958 | 9411 ft | 297 kts | 248° |
| 2026-05-05 04:43 | 21.30586 | -157.79971 | 8969 ft | 294 kts | 248° |
| 2026-05-05 04:43 | 21.29811 | -157.81980 | 8717 ft | 287 kts | 248° |
| 2026-05-05 04:43 | 21.29060 | -157.83933 | 8590 ft | 277 kts | 247° |
| 2026-05-05 04:44 | 21.28334 | -157.85817 | 8412 ft | 270 kts | 247° |
| 2026-05-05 04:44 | 21.27574 | -157.87648 | 8090 ft | 269 kts | 244° |
| 2026-05-05 04:44 | 21.26765 | -157.89459 | 7797 ft | 267 kts | 243° |
| 2026-05-05 04:44 | 21.25941 | -157.91255 | 7397 ft | 267 kts | 243° |
| 2026-05-05 04:45 | 21.25127 | -157.93023 | 6977 ft | 264 kts | 243° |
| 2026-05-05 04:45 | 21.24323 | -157.94788 | 6529 ft | 262 kts | 245° |
| 2026-05-05 04:45 | 21.23838 | -157.96626 | 6103 ft | 257 kts | 264° |
| 2026-05-05 04:45 | 21.23811 | -157.98496 | 5999 ft | 245 kts | 270° |
| 2026-05-05 04:46 | 21.23820 | -158.00275 | 6020 ft | 236 kts | 269° |
| 2026-05-05 04:46 | 21.23820 | -158.02032 | 6008 ft | 235 kts | 269° |
| 2026-05-05 04:46 | 21.23817 | -158.03783 | 5785 ft | 233 kts | 269° |
| 2026-05-05 04:46 | 21.23812 | -158.05520 | 5637 ft | 232 kts | 269° |
| 2026-05-05 04:47 | 21.23808 | -158.07227 | 5524 ft | 232 kts | 269° |
| 2026-05-05 04:47 | 21.23807 | -158.08952 | 5408 ft | 231 kts | 270° |
| 2026-05-05 04:47 | 21.23808 | -158.10679 | 5292 ft | 231 kts | 270° |
| 2026-05-05 04:47 | 21.23809 | -158.12404 | 5183 ft | 230 kts | 270° |
| 2026-05-05 04:48 | 21.23807 | -158.14111 | 5074 ft | 227 kts | 270° |
| 2026-05-05 04:48 | 21.23804 | -158.15787 | 4964 ft | 223 kts | 270° |
| 2026-05-05 04:48 | 21.23801 | -158.17445 | 4855 ft | 220 kts | 270° |
| 2026-05-05 04:48 | 21.23803 | -158.19053 | 4705 ft | 218 kts | 273° |
| 2026-05-05 04:49 | 21.24230 | -158.20597 | 4446 ft | 214 kts | 305° |
| 2026-05-05 04:49 | 21.25285 | -158.21641 | 4179 ft | 210 kts | 335° |
| 2026-05-05 04:49 | 21.26676 | -158.21985 | 4035 ft | 206 kts | 2° |
| 2026-05-05 04:49 | 21.28113 | -158.21977 | 4017 ft | 206 kts | 2° |
| 2026-05-05 04:50 | 21.29519 | -158.21828 | 4009 ft | 198 kts | 18° |
| 2026-05-05 04:50 | 21.30753 | -158.21222 | 4036 ft | 193 kts | 36° |
| 2026-05-05 04:50 | 21.31708 | -158.20250 | 4038 ft | 191 kts | 53° |
| 2026-05-05 04:50 | 21.32318 | -158.18997 | 4006 ft | 190 kts | 72° |
| 2026-05-05 04:51 | 21.32501 | -158.17612 | 3768 ft | 184 kts | 90° |
| 2026-05-05 04:51 | 21.32501 | -158.16250 | 3495 ft | 181 kts | 89° |
| 2026-05-05 04:51 | 21.32504 | -158.14898 | 3161 ft | 182 kts | 89° |
| 2026-05-05 04:51 | 21.32506 | -158.13545 | 2799 ft | 181 kts | 89° |
| 2026-05-05 04:52 | 21.32508 | -158.12217 | 2495 ft | 175 kts | 88° |
| 2026-05-05 04:52 | 21.32510 | -158.10951 | 2259 ft | 164 kts | 88° |
| 2026-05-05 04:52 | 21.32511 | -158.09769 | 2209 ft | 154 kts | 88° |
| 2026-05-05 04:52 | 21.32513 | -158.08632 | 2229 ft | 150 kts | 89° |
| 2026-05-05 04:53 | 21.32514 | -158.07518 | 2219 ft | 146 kts | 88° |
| 2026-05-05 04:53 | 21.32515 | -158.06441 | 2148 ft | 143 kts | 88° |
| 2026-05-05 04:53 | 21.32516 | -158.05393 | 2006 ft | 142 kts | 88° |
| 2026-05-05 04:53 | 21.32518 | -158.04332 | 1840 ft | 142 kts | 87° |
| 2026-05-05 04:54 | 21.32519 | -158.03272 | 1672 ft | 142 kts | 87° |
| 2026-05-05 04:54 | 21.32519 | -158.02222 | 1478 ft | 141 kts | 86° |
| 2026-05-05 04:54 | 21.32520 | -158.01172 | 1293 ft | 141 kts | 87° |
| 2026-05-05 04:54 | 21.32521 | -158.00122 | 1111 ft | 142 kts | 87° |
| 2026-05-05 04:55 | 21.32521 | -157.99064 | 901 ft | 141 kts | 87° |
| 2026-05-05 04:55 | 21.32512 | -157.98034 | 731 ft | 139 kts | 86° |
| 2026-05-05 04:55 | 21.32512 | -157.96990 | 538 ft | 140 kts | 85° |
| 2026-05-05 04:55 | 21.32510 | -157.95957 | 398 ft | 138 kts | 84° |
| 2026-05-05 04:56 | 21.32523 | -157.94914 | 193 ft | 142 kts | 84° |
| 2026-05-05 04:56 | 21.32522 | -157.93863 | 45 ft | 140 kts | 85° |
| 2026-05-05 04:56 | 21.32527 | -157.92966 | 25 ft | 88 kts | 91° |
| 2026-05-05 04:56 | 21.32528 | -157.92527 | 24 ft | 48 kts | 90° |
| 2026-05-05 04:57 | 21.32527 | -157.92191 | 24 ft | 42 kts | 90° |
| 2026-05-05 04:57 | 21.32529 | -157.91982 | 24 ft | 14 kts | 58° |
| 2026-05-05 04:57 | 21.32608 | -157.91938 | 24 ft | 12 kts | 23° |
| 2026-05-05 04:57 | 21.32678 | -157.91906 | 24 ft | 6 kts | 25° |
| 2026-05-05 04:58 | 21.32688 | -157.91901 | 24 ft | 1 kts | 25° |
| 2026-05-05 04:58 | 21.32702 | -157.91894 | 25 ft | 3 kts | 25° |
| 2026-05-05 04:58 | 21.32725 | -157.91882 | 24 ft | 5 kts | 25° |
| 2026-05-05 04:58 | 21.32760 | -157.91865 | 25 ft | 6 kts | 25° |
| 2026-05-05 04:59 | 21.32803 | -157.91851 | 26 ft | 5 kts | 4° |
| 2026-05-05 04:59 | 21.32845 | -157.91848 | 24 ft | 7 kts | 4° |
| 2026-05-05 04:59 | 21.32896 | -157.91839 | 24 ft | 8 kts | 11° |
| 2026-05-05 04:59 | 21.32955 | -157.91828 | 24 ft | 9 kts | 8° |
| 2026-05-05 05:00 | 21.33003 | -157.91816 | 24 ft | 3 kts | 39° |
| 2026-05-05 05:00 | 21.33004 | -157.91789 | 24 ft | 5 kts | 91° |
| 2026-05-05 05:00 | 21.33000 | -157.91756 | 24 ft | 0 kts | 97° |